Gander International Airport

CYQX | YQX

Gander , Newfoundland and Labrador , Canada

Sunday, January 19th, 2020 | 14:39

Weather

CYQX 191800Z 23006KT 20SM FEW015 FEW030 FEW100 FEW160 SCT250 M11/M17 A3001 RMK CF1SC1AC1AC1CI1 CF TR AC TR SLP179

Charts

No Charts Available

Gates

20 Available

Runways

2 Available

Events

No events for this airport


New event